Hlavní strana
METAR-TAF:

METAR-TAF

Letiště :

Astrachaň, Rusko

zeměpisná šířka: 46-17N, zeměpisná délka: 048-00-23E, výška: 0 m

Aktuální stav počasí

Zpráva byla vytvořena před 29 minutami, v 00:00 UTC
Východojihovýchodní vítr 6 kt
Teplota 12°C
Vlhkost vzduchu 71%
Tlak 1013 hPa
Viditelnost 10 km a více
Žádná oblačnost pod 1500 m, nevyskytují se cumulonimby.

METAR: URWA 090000Z 12003MPS CAVOK 12/07 Q1013 R09/010070 NOSIG RMK QFE761/1015

Čas: 04:29 (00:29 UTC)

Předpověď počasí

Zpráva byla vytvořena před 1 hodinou a 29 minutami, v 23:00 UTC
Předpověď platná od 09 v 00 UTC do 09 v 09 UTC
Východojihovýchodní vítr 6 kt s nárazy do 17 kt
Viditelnost 10 km a více
Žádná oblačnost pod 1500 m, nevyskytují se cumulonimby.
Dočasný
od 09 v 00 UTC do 09 v 03 UTC
Východní vítr 10 kt s nárazy do 19 kt
Změna
od 09 v 03 UTC do 09 v 05 UTC
Jihojihovýchodní vítr 16 kt s nárazy do 27 kt

TAF: URWA 082300Z 0900/0909 12003G09MPS CAVOK TEMPO 0900/0903 09005G10MPS BECMG 0903/0905 15008G14MPS

Stav a předpovědi počasí z více než 4 000 letišť (zprávy METAR a TAF).

Červené a žluté tečky na mapě představují dostupné meteorologické stanice.

Když kurzor umístíte na tečku, zobrazí se název stanice.

Pak kliknutím zobrazíte stav a předpověď počasí.

Chcete-li změnit mapu, kliknutím na zelené tlačítko se znaménkem +mapu přiblížíte, kliknutím na zelené tlačítko se znaménkem – mapu oddálíte a kliknutím na zelené šipky přejdete na sousední mapy.


METAR-TAF: